createdAt,value
2017-10-22T00:00:07.426Z,100798.66
2017-10-22T00:02:35.780Z,100794.24
2017-10-22T00:05:04.212Z,100798.02
2017-10-22T00:07:32.651Z,100804.02
2017-10-22T00:10:01.744Z,100807.50
2017-10-22T00:12:30.364Z,100808.25
2017-10-22T00:14:58.648Z,100798.83
2017-10-22T00:17:26.988Z,100784.67
2017-10-22T00:19:55.465Z,100785.48
2017-10-22T00:22:23.960Z,100785.52
2017-10-22T00:24:52.233Z,100784.27
2017-10-22T00:27:20.639Z,100774.63
2017-10-22T00:29:49.208Z,100774.87
2017-10-22T00:32:17.608Z,100783.05
2017-10-22T00:34:46.018Z,100779.52
2017-10-22T00:37:14.719Z,100779.45
2017-10-22T00:39:43.119Z,100777.65
2017-10-22T00:42:11.523Z,100785.02
2017-10-22T00:44:40.468Z,100790.65
2017-10-22T00:47:08.895Z,100797.89
2017-10-22T00:49:37.486Z,100796.91
2017-10-22T00:52:05.824Z,100798.03
2017-10-22T00:54:34.203Z,100801.48
2017-10-22T00:57:02.527Z,100809.43
2017-10-22T00:59:31.213Z,100815.95
2017-10-22T01:01:59.593Z,100813.40
2017-10-22T01:04:28.202Z,100816.13
2017-10-22T01:06:56.654Z,100815.65
2017-10-22T01:09:25.000Z,100820.53
2017-10-22T01:11:53.311Z,100824.06
2017-10-22T01:14:21.644Z,100818.19
2017-10-22T01:16:50.135Z,100808.58
2017-10-22T01:19:18.625Z,100794.49
2017-10-22T01:21:47.248Z,100788.34
2017-10-22T01:24:15.701Z,100788.34
2017-10-22T01:26:44.002Z,100785.33
2017-10-22T01:29:12.463Z,100782.58
2017-10-22T01:31:40.770Z,100776.00
2017-10-22T01:34:09.050Z,100771.99
2017-10-22T01:36:37.376Z,100775.94
2017-10-22T01:39:06.184Z,100769.04
2017-10-22T01:41:34.541Z,100765.20
2017-10-22T01:44:02.837Z,100768.45
2017-10-22T01:46:31.871Z,100768.86
2017-10-22T01:49:00.158Z,100758.25
2017-10-22T01:51:28.615Z,100745.61
2017-10-22T01:53:57.205Z,100737.38
2017-10-22T01:56:25.556Z,100729.78
2017-10-22T01:58:54.396Z,100721.08
2017-10-22T02:01:22.863Z,100712.50
2017-10-22T02:03:51.186Z,100702.73
2017-10-22T02:06:19.515Z,100691.77
2017-10-22T02:08:47.980Z,100691.36
2017-10-22T02:11:16.346Z,100703.91
2017-10-22T02:13:44.644Z,100705.69
2017-10-22T02:16:12.964Z,100715.92
2017-10-22T02:18:41.452Z,100726.59
2017-10-22T02:21:09.759Z,100721.66
2017-10-22T02:23:38.156Z,100729.02
2017-10-22T02:26:06.488Z,100742.45
2017-10-22T02:28:34.808Z,100741.03
2017-10-22T02:31:03.123Z,100745.00
2017-10-22T02:33:31.572Z,100747.17
2017-10-22T02:35:59.864Z,100759.13
2017-10-22T02:38:28.174Z,100744.97
2017-10-22T02:40:56.724Z,100735.06
2017-10-22T02:43:25.091Z,100732.85
2017-10-22T02:45:53.412Z,100734.83
2017-10-22T02:48:21.847Z,100726.13
2017-10-22T02:50:50.155Z,100721.48
2017-10-22T02:53:18.580Z,100725.60
2017-10-22T02:55:47.120Z,100720.84
2017-10-22T02:58:15.404Z,100728.84
2017-10-22T03:00:43.749Z,100729.20
2017-10-22T03:03:12.104Z,100730.24
2017-10-22T03:05:40.460Z,100738.36
2017-10-22T03:08:08.840Z,100740.67
2017-10-22T03:10:37.355Z,100753.09
2017-10-22T03:13:05.643Z,100751.12
2017-10-22T03:15:33.939Z,100749.15
2017-10-22T03:18:02.384Z,100745.55
2017-10-22T03:20:30.684Z,100750.71
2017-10-22T03:22:59.158Z,100755.47
2017-10-22T03:25:27.709Z,100750.66
2017-10-22T03:27:59.128Z,100755.06
2017-10-22T03:30:27.458Z,100750.95
2017-10-22T03:32:55.733Z,100749.84
2017-10-22T03:35:24.100Z,100739.00
2017-10-22T03:37:52.449Z,100730.07
2017-10-22T03:40:20.832Z,100734.88
2017-10-22T03:42:49.340Z,100732.33
2017-10-22T03:45:17.873Z,100731.41
2017-10-22T03:47:46.228Z,100732.56
2017-10-22T03:50:14.552Z,100735.00
2017-10-22T03:52:43.138Z,100733.03
2017-10-22T03:55:11.512Z,100730.91
2017-10-22T03:57:39.798Z,100732.73
2017-10-22T04:00:08.696Z,100740.91
2017-10-22T04:02:37.188Z,100741.14
2017-10-22T04:05:06.561Z,100739.92
2017-10-22T04:07:34.821Z,100735.52
2017-10-22T04:10:03.181Z,100729.55
2017-10-22T04:12:31.491Z,100735.34
2017-10-22T04:14:59.796Z,100726.30
2017-10-22T04:17:28.299Z,100737.86
2017-10-22T04:19:56.668Z,100738.50
2017-10-22T04:22:25.004Z,100737.11
2017-10-22T04:24:53.443Z,100732.13
2017-10-22T04:27:21.784Z,100729.05
2017-10-22T04:29:50.140Z,100744.99
2017-10-22T04:32:18.431Z,100746.84
2017-10-22T04:34:46.748Z,100735.52
2017-10-22T04:37:15.104Z,100732.45
2017-10-22T04:39:43.380Z,100725.98
2017-10-22T04:42:11.673Z,100731.48
2017-10-22T04:44:40.016Z,100736.64
2017-10-22T04:47:09.404Z,100744.99
2017-10-22T04:49:37.769Z,100739.92
2017-10-22T04:52:06.075Z,100739.69
2017-10-22T04:54:34.467Z,100740.33
2017-10-22T04:57:02.875Z,100749.48
2017-10-22T04:59:31.224Z,100753.52
2017-10-22T05:01:59.534Z,100748.41
2017-10-22T05:04:28.003Z,100737.05
2017-10-22T05:06:56.301Z,100741.80
2017-10-22T05:09:24.713Z,100753.00
2017-10-22T05:11:53.144Z,100752.19
2017-10-22T05:14:21.562Z,100741.08
2017-10-22T05:16:50.124Z,100733.92
2017-10-22T05:19:18.467Z,100722.90
2017-10-22T05:21:46.763Z,100710.44
2017-10-22T05:24:15.066Z,100720.20
2017-10-22T05:26:43.363Z,100727.40
2017-10-22T05:29:11.769Z,100733.69
2017-10-22T05:31:40.341Z,100737.89
2017-10-22T05:34:09.124Z,100739.89
2017-10-22T05:36:37.552Z,100741.69
2017-10-22T05:39:05.896Z,100737.86
2017-10-22T05:41:34.195Z,100751.80
2017-10-22T05:44:02.474Z,100742.93
2017-10-22T05:46:30.923Z,100740.02
2017-10-22T05:48:59.420Z,100727.64
2017-10-22T05:51:27.915Z,100735.09
2017-10-22T05:53:56.284Z,100744.41
2017-10-22T05:56:24.675Z,100750.30
2017-10-22T05:58:53.115Z,100744.42
2017-10-22T06:01:21.544Z,100738.57
2017-10-22T06:03:49.813Z,100746.61
2017-10-22T06:06:18.128Z,100741.42
2017-10-22T06:08:46.431Z,100737.65
2017-10-22T06:11:14.783Z,100744.35
2017-10-22T06:13:43.108Z,100743.19
2017-10-22T06:16:11.655Z,100733.56
2017-10-22T06:18:39.959Z,100740.27
2017-10-22T06:21:08.285Z,100747.34
2017-10-22T06:23:36.844Z,100746.94
2017-10-22T06:26:05.335Z,100740.00
2017-10-22T06:28:33.633Z,100744.15
2017-10-22T06:31:01.965Z,100743.59
2017-10-22T06:33:30.276Z,100749.92
2017-10-22T06:35:58.579Z,100757.58
2017-10-22T06:38:27.700Z,100758.97
2017-10-22T06:40:56.020Z,100761.00
2017-10-22T06:43:24.347Z,100761.93
2017-10-22T06:45:52.814Z,100755.78
2017-10-22T06:48:21.248Z,100755.44
2017-10-22T06:50:49.599Z,100766.00
2017-10-22T06:53:18.229Z,100758.69
2017-10-22T06:55:46.560Z,100755.26
2017-10-22T06:58:14.921Z,100753.86
2017-10-22T07:00:43.862Z,100753.86
2017-10-22T07:03:12.184Z,100747.72
2017-10-22T07:05:40.931Z,100750.73
2017-10-22T07:08:09.432Z,100744.52
2017-10-22T07:10:37.863Z,100753.28
2017-10-22T07:15:33.641Z,100755.78
2017-10-22T07:18:02.007Z,100752.06
2017-10-22T07:20:30.307Z,100744.03
2017-10-22T07:22:58.604Z,100738.75
2017-10-22T07:25:26.955Z,100744.81
2017-10-22T07:27:55.384Z,100741.28
2017-10-22T07:30:24.004Z,100736.86
2017-10-22T07:32:52.296Z,100748.62
2017-10-22T07:35:20.608Z,100750.36
2017-10-22T07:37:49.027Z,100753.98
2017-10-22T07:40:17.479Z,100752.59
2017-10-22T07:42:45.936Z,100754.73
2017-10-22T07:45:14.787Z,100756.22
2017-10-22T07:47:43.130Z,100758.94
2017-10-22T07:50:11.649Z,100754.56
2017-10-22T07:52:40.049Z,100765.64
2017-10-22T07:55:08.357Z,100766.48
2017-10-22T07:57:36.898Z,100767.67
2017-10-22T08:00:05.236Z,100760.48
2017-10-22T08:02:33.574Z,100758.27
2017-10-22T08:05:01.851Z,100766.45
2017-10-22T08:07:30.788Z,100768.66
2017-10-22T08:09:59.069Z,100766.08
2017-10-22T08:12:27.458Z,100764.11
2017-10-22T08:14:56.135Z,100770.05
2017-10-22T08:17:24.544Z,100761.52
2017-10-22T08:19:53.087Z,100757.95
2017-10-22T08:22:21.610Z,100754.01
2017-10-22T08:24:49.924Z,100757.61
2017-10-22T08:27:18.232Z,100746.13
2017-10-22T08:29:46.524Z,100743.28
2017-10-22T08:32:14.976Z,100746.13
2017-10-22T08:34:43.415Z,100739.34
2017-10-22T08:37:11.776Z,100738.93
2017-10-22T08:39:40.131Z,100736.26
2017-10-22T08:42:08.465Z,100742.35
2017-10-22T08:44:36.833Z,100746.18
2017-10-22T08:47:05.177Z,100740.78
2017-10-22T08:49:33.479Z,100732.66
2017-10-22T08:52:01.943Z,100729.58
2017-10-22T08:54:30.285Z,100730.85
2017-10-22T08:56:59.020Z,100730.16
2017-10-22T08:59:27.314Z,100718.11
2017-10-22T09:01:56.625Z,100717.55
2017-10-22T09:04:25.315Z,100711.99
2017-10-22T09:06:53.715Z,100717.69
2017-10-22T09:09:22.007Z,100713.58
2017-10-22T09:11:50.332Z,100716.80
2017-10-22T09:14:18.622Z,100711.63
2017-10-22T09:16:47.022Z,100708.11
2017-10-22T09:19:15.492Z,100706.84
2017-10-22T09:21:43.846Z,100707.61
2017-10-22T09:24:12.107Z,100703.33
2017-10-22T09:26:40.404Z,100703.09
2017-10-22T09:29:09.317Z,100702.60
2017-10-22T09:31:37.762Z,100703.03
2017-10-22T09:34:06.392Z,100699.18
2017-10-22T09:36:35.023Z,100704.28
2017-10-22T09:39:05.027Z,100707.35
2017-10-22T09:41:33.515Z,100702.13
2017-10-22T09:44:01.820Z,100706.06
2017-10-22T09:46:30.327Z,100708.27
2017-10-22T09:48:59.235Z,100707.17
2017-10-22T09:51:27.607Z,100710.93
2017-10-22T09:53:55.912Z,100707.16
2017-10-22T09:56:24.285Z,100706.64
2017-10-22T09:58:52.615Z,100706.88
2017-10-22T10:01:20.927Z,100709.36
2017-10-22T10:03:49.259Z,100709.92
2017-10-22T10:06:17.698Z,100707.50
2017-10-22T10:08:46.728Z,100711.69
2017-10-22T10:11:15.146Z,100714.68
2017-10-22T10:13:43.428Z,100709.33
2017-10-22T10:16:11.824Z,100715.54
2017-10-22T10:18:40.396Z,100717.47
2017-10-22T10:21:09.025Z,100712.93
2017-10-22T10:23:37.529Z,100717.87
2017-10-22T10:26:06.196Z,100710.84
2017-10-22T10:28:34.528Z,100717.03
2017-10-22T10:31:02.988Z,100714.04
2017-10-22T10:33:31.304Z,100710.82
2017-10-22T10:35:59.991Z,100707.63
2017-10-22T10:38:28.356Z,100713.09
2017-10-22T10:40:56.651Z,100709.70
2017-10-22T10:43:25.059Z,100712.31
2017-10-22T10:45:53.378Z,100712.72
2017-10-22T10:48:21.647Z,100709.13
2017-10-22T10:50:50.044Z,100709.30
2017-10-22T10:53:19.199Z,100712.96
2017-10-22T10:55:47.722Z,100709.87
2017-10-22T10:58:16.072Z,100712.53
2017-10-22T11:00:44.652Z,100715.49
2017-10-22T11:03:13.149Z,100713.64
2017-10-22T11:05:42.017Z,100718.05
2017-10-22T11:08:10.464Z,100716.17
2017-10-22T11:10:39.007Z,100718.05
2017-10-22T11:13:07.456Z,100714.20
2017-10-22T11:15:35.955Z,100707.64
2017-10-22T11:18:05.132Z,100705.16
2017-10-22T11:20:33.740Z,100705.34
2017-10-22T11:23:02.507Z,100697.33
2017-10-22T11:25:30.906Z,100695.91
2017-10-22T11:27:59.329Z,100701.25
2017-10-22T11:30:28.255Z,100708.92
2017-10-22T11:32:56.719Z,100696.31
2017-10-22T11:35:25.118Z,100697.98
2017-10-22T11:37:53.432Z,100698.16
2017-10-22T11:40:21.835Z,100697.87
2017-10-22T11:42:50.231Z,100694.20
2017-10-22T11:45:18.880Z,100694.02
2017-10-22T11:47:47.209Z,100698.78
2017-10-22T11:50:15.643Z,100692.57
2017-10-22T11:52:43.951Z,100692.17
2017-10-22T11:55:12.492Z,100687.79
2017-10-22T11:57:41.168Z,100687.41
2017-10-22T12:00:09.894Z,100687.67
2017-10-22T12:02:38.389Z,100692.31
2017-10-22T12:05:07.292Z,100681.89
2017-10-22T12:07:35.780Z,100689.77
2017-10-22T12:10:04.114Z,100684.59
2017-10-22T12:12:32.646Z,100672.90
2017-10-22T12:15:01.125Z,100681.23
2017-10-22T12:17:29.811Z,100681.37
2017-10-22T12:19:58.212Z,100679.63
2017-10-22T12:22:26.559Z,100679.86
2017-10-22T12:24:55.862Z,100681.41
2017-10-22T12:27:24.250Z,100674.06
2017-10-22T12:29:52.548Z,100667.51
2017-10-22T12:32:20.920Z,100665.22
2017-10-22T12:34:49.367Z,100664.17
2017-10-22T12:37:17.875Z,100659.56
2017-10-22T12:39:46.181Z,100653.97
2017-10-22T12:42:14.658Z,100663.59
2017-10-22T12:44:42.961Z,100659.61
2017-10-22T12:47:11.416Z,100656.23
2017-10-22T12:49:40.033Z,100658.18
2017-10-22T12:52:09.320Z,100656.61
2017-10-22T12:54:38.559Z,100655.45
2017-10-22T12:57:06.903Z,100647.08
2017-10-22T12:59:35.261Z,100654.99
2017-10-22T13:02:03.661Z,100653.52
2017-10-22T13:04:32.388Z,100647.80
2017-10-22T13:07:01.006Z,100650.47
2017-10-22T13:09:30.415Z,100645.38
2017-10-22T13:12:00.380Z,100648.91
2017-10-22T13:14:29.860Z,100653.66
2017-10-22T13:16:58.604Z,100648.23
2017-10-22T13:19:27.844Z,100644.53
2017-10-22T13:21:57.005Z,100648.23
2017-10-22T13:24:25.571Z,100640.69
2017-10-22T13:26:54.028Z,100651.47
2017-10-22T13:29:22.387Z,100653.28
2017-10-22T13:31:50.718Z,100647.70
2017-10-22T13:34:19.004Z,100652.18
2017-10-22T13:36:48.371Z,100661.45
2017-10-22T13:39:16.760Z,100654.57
2017-10-22T13:41:45.671Z,100655.34
2017-10-22T13:44:13.945Z,100662.89
2017-10-22T13:46:42.349Z,100668.05
2017-10-22T13:49:10.926Z,100664.25
2017-10-22T13:51:39.352Z,100667.63
2017-10-22T13:54:07.719Z,100663.39
2017-10-22T13:56:38.092Z,100672.64
2017-10-22T13:59:06.665Z,100666.27
2017-10-22T14:01:35.135Z,100666.52
2017-10-22T14:04:03.708Z,100673.05
2017-10-22T14:06:32.032Z,100671.28
2017-10-22T14:09:00.434Z,100677.23
2017-10-22T14:11:31.051Z,100671.20
2017-10-22T14:13:59.348Z,100673.81
2017-10-22T14:16:27.644Z,100677.34
2017-10-22T14:18:55.913Z,100673.72
2017-10-22T14:21:24.212Z,100678.10
2017-10-22T14:23:52.724Z,100680.98
2017-10-22T14:26:21.062Z,100682.11
2017-10-22T14:28:49.405Z,100678.25
2017-10-22T14:31:17.740Z,100681.79
2017-10-22T14:33:46.017Z,100682.38
2017-10-22T14:36:14.527Z,100678.37
2017-10-22T14:38:42.873Z,100679.33
2017-10-22T14:41:11.215Z,100680.31
2017-10-22T14:43:39.856Z,100690.00
2017-10-22T14:46:08.192Z,100688.44
2017-10-22T14:48:36.471Z,100689.25
2017-10-22T14:51:04.771Z,100689.16
2017-10-22T14:53:33.099Z,100687.19
2017-10-22T14:56:01.540Z,100696.94
2017-10-22T14:58:29.924Z,100698.33
2017-10-22T15:00:58.422Z,100694.03
2017-10-22T15:03:26.787Z,100694.20
2017-10-22T15:05:55.283Z,100693.39
2017-10-22T15:08:23.556Z,100702.16
2017-10-22T15:10:51.865Z,100709.11
2017-10-22T15:13:20.928Z,100707.92
2017-10-22T15:15:50.667Z,100711.72
2017-10-22T15:18:19.184Z,100708.09
2017-10-22T15:20:47.497Z,100708.70
2017-10-22T15:23:15.800Z,100715.89
2017-10-22T15:25:44.121Z,100708.59
2017-10-22T15:28:12.454Z,100710.73
2017-10-22T15:30:41.056Z,100707.92
2017-10-22T15:33:09.483Z,100706.70
2017-10-22T15:35:37.905Z,100711.46
2017-10-22T15:38:06.206Z,100717.44
2017-10-22T15:40:34.508Z,100716.16
2017-10-22T15:43:02.809Z,100714.53
2017-10-22T15:45:31.220Z,100717.20
2017-10-22T15:47:59.541Z,100718.19
2017-10-22T15:50:27.888Z,100723.29
2017-10-22T15:52:56.308Z,100722.42
2017-10-22T15:55:24.636Z,100726.05
2017-10-22T15:57:52.967Z,100726.22
2017-10-22T16:00:21.297Z,100722.05
2017-10-22T16:02:49.722Z,100723.03
2017-10-22T16:05:18.318Z,100728.83
2017-10-22T16:07:47.416Z,100733.23
2017-10-22T16:10:15.892Z,100727.96
2017-10-22T16:12:44.267Z,100730.45
2017-10-22T16:15:12.580Z,100730.05
2017-10-22T16:17:40.977Z,100727.09
2017-10-22T16:20:09.347Z,100739.68
2017-10-22T16:22:37.777Z,100732.34
2017-10-22T16:25:09.317Z,100742.26
2017-10-22T16:27:37.826Z,100742.47
2017-10-22T16:30:06.184Z,100741.08
2017-10-22T16:32:35.083Z,100732.66
2017-10-22T16:35:03.513Z,100735.53
2017-10-22T16:37:32.024Z,100732.31
2017-10-22T16:40:00.316Z,100729.30
2017-10-22T16:42:28.988Z,100737.24
2017-10-22T16:44:57.344Z,100733.65
2017-10-22T16:47:25.725Z,100740.03
2017-10-22T16:49:54.043Z,100734.98
2017-10-22T16:52:22.465Z,100735.97
2017-10-22T16:54:51.701Z,100737.16
2017-10-22T16:57:20.016Z,100741.19
2017-10-22T16:59:48.480Z,100741.36
2017-10-22T17:02:16.931Z,100741.77
2017-10-22T17:04:45.451Z,100738.58
2017-10-22T17:07:13.820Z,100742.98
2017-10-22T17:09:42.239Z,100745.02
2017-10-22T17:12:10.644Z,100749.42
2017-10-22T17:14:39.218Z,100747.54
2017-10-22T17:17:07.601Z,100750.91
2017-10-22T17:19:36.086Z,100755.80
2017-10-22T17:22:04.557Z,100757.05
2017-10-22T17:24:33.028Z,100756.88
2017-10-22T17:27:01.383Z,100757.03
2017-10-22T17:29:30.027Z,100762.86
2017-10-22T17:31:58.352Z,100756.13
2017-10-22T17:34:28.256Z,100751.78
2017-10-22T17:36:57.251Z,100751.38
2017-10-22T17:39:25.595Z,100755.31
2017-10-22T17:41:54.747Z,100756.70
2017-10-22T17:44:23.458Z,100759.84
2017-10-22T17:46:51.903Z,100764.53
2017-10-22T17:49:20.293Z,100763.63
2017-10-22T17:51:48.749Z,100760.20
2017-10-22T17:54:17.116Z,100757.39
2017-10-22T17:56:45.624Z,100750.14
2017-10-22T17:59:13.887Z,100751.94
2017-10-22T18:01:42.508Z,100749.33
2017-10-22T18:04:11.272Z,100747.73
2017-10-22T18:06:40.413Z,100750.14
2017-10-22T18:09:08.869Z,100750.55
2017-10-22T18:11:38.039Z,100754.03
2017-10-22T18:14:06.670Z,100747.56
2017-10-22T18:16:36.051Z,100754.14
2017-10-22T18:19:06.622Z,100749.30
2017-10-22T18:21:35.167Z,100748.00
2017-10-22T18:24:03.616Z,100750.03
2017-10-22T18:26:32.094Z,100750.20
2017-10-22T18:29:01.740Z,100748.23
2017-10-22T18:31:30.263Z,100747.19
2017-10-22T18:33:58.584Z,100742.84
2017-10-22T18:36:26.935Z,100741.91
2017-10-22T18:38:55.527Z,100739.33
2017-10-22T18:41:23.965Z,100740.78
2017-10-22T18:43:52.388Z,100743.80
2017-10-22T18:46:20.816Z,100748.78
2017-10-22T18:48:49.095Z,100752.37
2017-10-22T18:51:17.451Z,100746.98
2017-10-22T18:53:45.936Z,100757.14
2017-10-22T18:56:14.272Z,100752.79
2017-10-22T18:58:42.637Z,100758.97
2017-10-22T19:01:11.163Z,100762.36
2017-10-22T19:03:39.576Z,100761.95
2017-10-22T19:06:07.987Z,100755.80
2017-10-22T19:08:36.352Z,100760.56
2017-10-22T19:11:04.848Z,100759.17
2017-10-22T19:13:33.348Z,100761.55
2017-10-22T19:16:01.638Z,100757.78
2017-10-22T19:18:31.043Z,100763.92
2017-10-22T19:20:59.403Z,100753.72
2017-10-22T19:23:27.873Z,100762.36
2017-10-22T19:25:56.200Z,100759.34
2017-10-22T19:28:25.156Z,100758.94
2017-10-22T19:30:53.500Z,100757.63
2017-10-22T19:33:21.760Z,100757.20
2017-10-22T19:35:50.111Z,100760.27
2017-10-22T19:38:18.403Z,100762.99
2017-10-22T19:40:46.708Z,100763.63
2017-10-22T19:43:14.985Z,100765.26
2017-10-22T19:45:43.716Z,100769.44
2017-10-22T19:48:12.256Z,100766.41
2017-10-22T19:50:40.591Z,100765.57
2017-10-22T19:53:08.903Z,100767.25
2017-10-22T19:55:37.297Z,100767.23
2017-10-22T19:58:05.595Z,100768.80
2017-10-22T20:00:34.372Z,100772.13
2017-10-22T20:03:02.693Z,100777.95
2017-10-22T20:05:34.197Z,100785.16
2017-10-22T20:08:03.037Z,100782.02
2017-10-22T20:10:32.092Z,100780.45
2017-10-22T20:13:00.384Z,100782.92
2017-10-22T20:15:28.782Z,100784.95
2017-10-22T20:17:57.168Z,100781.39
2017-10-22T20:20:25.483Z,100778.84
2017-10-22T20:22:53.848Z,100780.05
2017-10-22T20:25:22.339Z,100784.94
2017-10-22T20:27:54.910Z,100788.50
2017-10-22T20:30:23.652Z,100785.95
2017-10-22T20:32:52.104Z,100792.91
2017-10-22T20:35:20.462Z,100786.59
2017-10-22T20:37:49.742Z,100794.77
2017-10-22T20:40:18.152Z,100795.00
2017-10-22T20:42:46.733Z,100792.80
2017-10-22T20:45:15.094Z,100789.11
2017-10-22T20:47:43.712Z,100791.32
2017-10-22T20:50:12.771Z,100792.36
2017-10-22T20:52:41.241Z,100797.53
2017-10-22T20:55:10.223Z,100798.28
2017-10-22T20:57:38.501Z,100803.27
2017-10-22T21:00:08.227Z,100803.68
2017-10-22T21:02:36.606Z,100805.30
2017-10-22T21:05:05.200Z,100809.25
2017-10-22T21:07:33.785Z,100808.09
2017-10-22T21:10:02.254Z,100810.88
2017-10-22T21:12:30.775Z,100807.63
2017-10-22T21:14:59.190Z,100812.38
2017-10-22T21:17:27.856Z,100809.94
2017-10-22T21:19:56.166Z,100811.33
2017-10-22T21:22:24.510Z,100810.90
2017-10-22T21:24:52.926Z,100810.66
2017-10-22T21:27:21.263Z,100808.22
2017-10-22T21:29:49.605Z,100811.01
2017-10-22T21:32:18.313Z,100816.34
2017-10-22T21:34:46.770Z,100815.16
2017-10-22T21:37:15.264Z,100820.31
2017-10-22T21:39:43.614Z,100818.11
2017-10-22T21:42:11.921Z,100821.30
2017-10-22T21:44:40.279Z,100824.03
2017-10-22T21:47:08.612Z,100825.59
2017-10-22T21:49:36.945Z,100826.98
2017-10-22T21:52:05.299Z,100827.97
2017-10-22T21:54:33.645Z,100826.89
2017-10-22T21:57:02.067Z,100827.94
2017-10-22T21:59:30.527Z,100825.73
2017-10-22T22:01:58.838Z,100831.51
2017-10-22T22:04:27.243Z,100826.72
2017-10-22T22:06:55.543Z,100821.97
2017-10-22T22:09:23.815Z,100824.92
2017-10-22T22:11:52.137Z,100819.36
2017-10-22T22:14:20.393Z,100825.36
2017-10-22T22:16:48.711Z,100822.78
2017-10-22T22:19:17.035Z,100823.94
2017-10-22T22:21:45.451Z,100825.56
2017-10-22T22:24:13.861Z,100825.36
2017-10-22T22:26:42.240Z,100823.20
2017-10-22T22:29:10.548Z,100818.66
2017-10-22T22:31:38.927Z,100828.13
2017-10-22T22:34:07.204Z,100833.94
2017-10-22T22:36:35.640Z,100825.00
2017-10-22T22:39:04.023Z,100830.68
2017-10-22T22:41:32.356Z,100830.99
2017-10-22T22:44:00.628Z,100828.15
2017-10-22T22:46:29.040Z,100829.78
2017-10-22T22:48:57.471Z,100826.69
2017-10-22T22:51:25.807Z,100833.63
2017-10-22T22:53:54.163Z,100829.48
2017-10-22T22:56:22.470Z,100838.23
2017-10-22T22:58:50.764Z,100829.48
2017-10-22T23:01:19.291Z,100841.50
2017-10-22T23:03:47.700Z,100839.47
2017-10-22T23:06:16.064Z,100839.06
2017-10-22T23:08:44.473Z,100842.62
2017-10-22T23:11:12.978Z,100848.77
2017-10-22T23:13:41.855Z,100848.06
2017-10-22T23:16:10.181Z,100848.06
2017-10-22T23:18:38.524Z,100845.28
2017-10-22T23:21:07.344Z,100847.08
2017-10-22T23:23:35.791Z,100847.08
2017-10-22T23:26:04.105Z,100847.83
2017-10-22T23:28:32.413Z,100848.20
2017-10-22T23:31:00.817Z,100846.17
2017-10-22T23:33:29.156Z,100849.83
2017-10-22T23:35:57.721Z,100857.47
2017-10-22T23:38:26.001Z,100855.16
2017-10-22T23:40:54.298Z,100853.36
2017-10-22T23:43:22.567Z,100851.67
2017-10-22T23:45:50.932Z,100847.09
2017-10-22T23:48:19.184Z,100852.72
2017-10-22T23:50:47.491Z,100844.71
2017-10-22T23:53:15.763Z,100850.34
2017-10-22T23:55:44.069Z,100849.06
2017-10-22T23:58:12.471Z,100846.28
